This is the latest recevied weather packets stored in our database for station/object SV1BYK-2. If no packets are shown the sender has not sent any weather packets the latest 10 day(s).
| Time | Temp. | Humidity | Pressure | Rain* | Wind** | Luminosity | Snow |
|---|---|---|---|---|---|---|---|
| 1778184135 | 20° C | 46% | 1012.4 hPa | 0 mm | - | 0 W/m² | - |
| 1778183643 | 20° C | 47% | 1012.4 hPa | 0 mm | - | 0 W/m² | - |
| 1778183234 | 20° C | 46% | 1012.5 hPa | 0 mm | - | 0 W/m² | - |
| 1778182696 | 20° C | 45% | 1012.3 hPa | 0 mm | - | 0 W/m² | - |
| 1778182153 | 20° C | 45% | 1012.1 hPa | 0 mm | - | 0 W/m² | - |
| 1778181616 | 20° C | 45% | 1012.5 hPa | 0 mm | - | 0 W/m² | - |
| 1778181073 | 20° C | 45% | 1012.2 hPa | 0 mm | - | 0 W/m² | - |
| 1778180404 | 20° C | 45% | 1012.1 hPa | 0 mm | - | 0 W/m² | - |
| 1778180044 | 20° C | 45% | 1012.1 hPa | 0 mm | - | 0 W/m² | - |
| 1778179503 | 20° C | 45% | 1012.2 hPa | 0 mm | - | 0 W/m² | - |
| 1778178963 | 20° C | 44% | 1012.3 hPa | 0 mm | - | 0 W/m² | - |
| 1778178554 | 20° C | 44% | 1012 hPa | 0 mm | - | 0 W/m² | - |
| 1778178017 | 20.56° C | 44% | 1012 hPa | 0 mm | - | 0 W/m² | - |
| 1778177474 | 20.56° C | 44% | 1012 hPa | 0 mm | - | 0 W/m² | - |
| 1778176804 | 20.56° C | 44% | 1012.2 hPa | 0 mm | - | 0 W/m² | - |
| 1778176578 | 20.56° C | 44% | 1012.1 hPa | 0 mm | - | 0 W/m² | - |
| 1778176035 | 20.56° C | 46% | 1011.8 hPa | 0 mm | - | 0 W/m² | - |
| 1778175498 | 20.56° C | 45% | 1012 hPa | 0 mm | - | 0 W/m² | - |
| 1778174955 | 20.56° C | 45% | 1012 hPa | 0 mm | - | 0 W/m² | - |
| 1778174417 | 21.11° C | 44% | 1012.1 hPa | 0 mm | - | 0 W/m² | - |
| 1778173874 | 21.67° C | 42% | 1011.9 hPa | 0 mm | - | 0 W/m² | - |
| 1778173204 | 21.67° C | 39% | 1011.7 hPa | 0 mm | - | 0 W/m² | - |
| 1778172973 | 21.67° C | 39% | 1011.7 hPa | 0 mm | - | 0 W/m² | - |
| 1778172436 | 22.22° C | 38% | 1011.3 hPa | 0 mm | - | 0 W/m² | - |
| 1778171763 | 21.67° C | 41% | 1011.2 hPa | 0 mm | - | 0 W/m² | - |
* Rain latest hour (hover to see other rain measurements)
** Current wind speed in m/s (hover to see current wind gust speed)